createdAt,value
2022-10-30T00:01:23.254Z,100189.95
2022-10-30T00:03:51.796Z,100191.89
2022-10-30T00:06:21.088Z,100190.91
2022-10-30T00:08:49.312Z,100190.20
2022-10-30T00:11:17.739Z,100190.45
2022-10-30T00:13:46.219Z,100186.34
2022-10-30T00:16:14.520Z,100183.08
2022-10-30T00:18:43.503Z,100181.77
2022-10-30T00:21:15.661Z,100182.96
2022-10-30T00:23:50.876Z,100178.69
2022-10-30T00:26:22.454Z,100178.89
2022-10-30T00:28:56.015Z,100180.34
2022-10-30T00:31:24.755Z,100177.89
2022-10-30T00:33:54.732Z,100172.07
2022-10-30T00:36:23.697Z,100170.85
2022-10-30T00:38:52.120Z,100166.23
2022-10-30T00:41:24.245Z,100162.75
2022-10-30T00:43:53.081Z,100167.40
2022-10-30T00:46:31.181Z,100167.99
2022-10-30T00:49:17.036Z,100166.77
2022-10-30T00:51:55.479Z,100166.86
2022-10-30T00:54:24.202Z,100164.20
2022-10-30T00:56:54.487Z,100166.27
2022-10-30T00:59:30.431Z,100161.20
2022-10-30T01:02:01.391Z,100161.02
2022-10-30T01:04:34.171Z,100163.50
2022-10-30T01:07:10.533Z,100161.70
2022-10-30T01:09:40.861Z,100160.33
2022-10-30T01:12:09.666Z,100161.80
2022-10-30T01:14:43.626Z,100160.49
2022-10-30T01:17:45.780Z,100160.45
2022-10-30T01:20:50.679Z,100151.40
2022-10-30T01:23:39.508Z,100149.09
2022-10-30T01:26:51.824Z,100148.99
2022-10-30T01:29:41.421Z,100146.73
2022-10-30T01:32:18.173Z,100143.27
2022-10-30T01:35:06.149Z,100146.52
2022-10-30T01:38:17.812Z,100142.19
2022-10-30T01:40:46.148Z,100145.48
2022-10-30T01:43:14.463Z,100146.53
2022-10-30T01:46:13.990Z,100144.04
2022-10-30T01:49:11.432Z,100149.09
2022-10-30T01:52:39.920Z,100150.65
2022-10-30T01:55:36.256Z,100141.77
2022-10-30T01:58:35.045Z,100141.25
2022-10-30T02:01:04.895Z,100141.64
2022-10-30T02:03:34.127Z,100142.38
2022-10-30T02:06:02.639Z,100143.48
2022-10-30T02:08:31.032Z,100142.96
2022-10-30T02:11:00.083Z,100145.08
2022-10-30T02:13:38.644Z,100145.73
2022-10-30T02:16:08.204Z,100146.73
2022-10-30T02:18:36.592Z,100146.10
2022-10-30T02:21:06.832Z,100143.20
2022-10-30T02:23:35.444Z,100145.79
2022-10-30T02:26:05.089Z,100144.19
2022-10-30T02:28:33.623Z,100149.67
2022-10-30T02:31:01.898Z,100152.11
2022-10-30T02:33:30.367Z,100151.52
2022-10-30T02:35:58.862Z,100153.14
2022-10-30T02:38:27.535Z,100154.75
2022-10-30T02:40:59.036Z,100153.98
2022-10-30T02:43:27.683Z,100152.70
2022-10-30T02:45:56.551Z,100154.38
2022-10-30T02:48:24.952Z,100155.88
2022-10-30T02:50:53.415Z,100158.47
2022-10-30T02:53:21.708Z,100157.30
2022-10-30T02:55:49.881Z,100162.98
2022-10-30T02:58:18.646Z,100167.49
2022-10-30T03:00:47.505Z,100163.82
2022-10-30T03:03:18.673Z,100161.42
2022-10-30T03:05:50.244Z,100154.57
2022-10-30T03:08:18.622Z,100156.07
2022-10-30T03:10:47.015Z,100157.95
2022-10-30T03:13:15.261Z,100158.20
2022-10-30T03:15:43.578Z,100159.30
2022-10-30T03:18:13.867Z,100160.77
2022-10-30T03:20:42.909Z,100161.36
2022-10-30T03:23:11.313Z,100165.75
2022-10-30T03:25:39.843Z,100169.48
2022-10-30T03:28:08.291Z,100170.65
2022-10-30T03:30:40.885Z,100170.30
2022-10-30T03:33:09.795Z,100168.10
2022-10-30T03:35:38.165Z,100166.42
2022-10-30T03:38:06.544Z,100157.94
2022-10-30T03:40:34.969Z,100166.98
2022-10-30T03:43:03.407Z,100165.64
2022-10-30T03:45:35.624Z,100165.10
2022-10-30T03:48:07.115Z,100167.13
2022-10-30T03:50:35.605Z,100158.56
2022-10-30T03:53:05.112Z,100156.52
2022-10-30T03:55:33.582Z,100154.80
2022-10-30T03:58:01.956Z,100154.54
2022-10-30T04:00:33.299Z,100148.16
2022-10-30T04:03:02.780Z,100151.09
2022-10-30T04:05:31.402Z,100144.85
2022-10-30T04:08:04.188Z,100145.95
2022-10-30T04:10:36.093Z,100146.90
2022-10-30T04:13:08.611Z,100147.16
2022-10-30T04:15:38.012Z,100150.45
2022-10-30T04:18:06.852Z,100144.46
2022-10-30T04:20:36.422Z,100143.41
2022-10-30T04:23:10.983Z,100145.14
2022-10-30T04:25:39.528Z,100150.89
2022-10-30T04:28:09.020Z,100153.05
2022-10-30T04:30:38.761Z,100152.73
2022-10-30T04:33:12.022Z,100153.75
2022-10-30T04:35:41.674Z,100153.29
2022-10-30T04:38:16.533Z,100161.55
2022-10-30T04:40:45.660Z,100162.13
2022-10-30T04:43:15.086Z,100158.91
2022-10-30T04:45:44.174Z,100154.85
2022-10-30T04:48:18.708Z,100153.16
2022-10-30T04:50:48.605Z,100153.23
2022-10-30T04:53:24.458Z,100158.54
2022-10-30T04:55:57.205Z,100156.54
2022-10-30T04:58:25.721Z,100153.14
2022-10-30T05:01:03.616Z,100154.81
2022-10-30T05:03:33.128Z,100155.92
2022-10-30T05:06:06.420Z,100155.98
2022-10-30T05:08:34.779Z,100155.70
2022-10-30T05:11:09.307Z,100154.13
2022-10-30T05:13:37.684Z,100155.46
2022-10-30T05:16:07.614Z,100155.70
2022-10-30T05:18:35.891Z,100156.73
2022-10-30T05:21:04.256Z,100153.95
2022-10-30T05:23:32.624Z,100165.45
2022-10-30T05:26:01.742Z,100176.15
2022-10-30T05:28:31.042Z,100173.05
2022-10-30T05:30:59.931Z,100170.02
2022-10-30T05:33:47.061Z,100169.43
2022-10-30T05:36:15.531Z,100177.17
2022-10-30T05:38:44.008Z,100181.10
2022-10-30T05:41:18.945Z,100188.80
2022-10-30T05:43:47.196Z,100193.80
2022-10-30T05:46:15.597Z,100188.05
2022-10-30T05:48:44.181Z,100193.67
2022-10-30T05:51:12.855Z,100192.09
2022-10-30T05:53:49.622Z,100198.17
2022-10-30T05:56:18.108Z,100195.54
2022-10-30T05:58:50.444Z,100199.80
2022-10-30T06:01:19.654Z,100209.02
2022-10-30T06:03:50.118Z,100211.19
2022-10-30T06:06:18.599Z,100217.40
2022-10-30T06:08:47.065Z,100207.55
2022-10-30T06:12:08.911Z,100212.64
2022-10-30T06:14:55.803Z,100209.13
2022-10-30T06:17:24.299Z,100214.56
2022-10-30T06:20:18.370Z,100211.63
2022-10-30T06:23:08.585Z,100213.27
2022-10-30T06:26:26.824Z,100216.20
2022-10-30T06:28:58.827Z,100215.27
2022-10-30T06:31:28.089Z,100216.49
2022-10-30T06:33:56.464Z,100221.88
2022-10-30T06:36:25.032Z,100220.23
2022-10-30T06:38:55.524Z,100219.48
2022-10-30T06:41:30.307Z,100223.00
2022-10-30T06:44:12.403Z,100218.20
2022-10-30T06:46:41.706Z,100224.08
2022-10-30T06:49:10.160Z,100226.34
2022-10-30T06:51:40.723Z,100221.95
2022-10-30T06:54:09.132Z,100219.14
2022-10-30T06:56:40.320Z,100212.59
2022-10-30T06:59:55.245Z,100218.64
2022-10-30T07:03:01.781Z,100223.52
2022-10-30T07:05:31.207Z,100222.35
2022-10-30T07:07:59.557Z,100219.92
2022-10-30T07:10:28.045Z,100216.23
2022-10-30T07:13:26.320Z,100205.02
2022-10-30T07:15:59.779Z,100201.88
2022-10-30T07:18:34.134Z,100196.06
2022-10-30T07:21:03.622Z,100196.25
2022-10-30T07:23:32.938Z,100198.63
2022-10-30T07:26:19.836Z,100199.89
2022-10-30T07:28:48.747Z,100199.39
2022-10-30T07:31:42.308Z,100195.11
2022-10-30T07:34:45.588Z,100186.46
2022-10-30T07:37:22.676Z,100184.33
2022-10-30T07:40:00.071Z,100191.09
2022-10-30T07:42:47.429Z,100187.63
2022-10-30T07:45:41.751Z,100187.76
2022-10-30T07:48:50.481Z,100189.61
2022-10-30T07:51:59.472Z,100185.77
2022-10-30T07:54:28.026Z,100184.35
2022-10-30T07:56:57.683Z,100182.77
2022-10-30T07:59:44.240Z,100178.75
2022-10-30T08:02:15.488Z,100177.67
2022-10-30T08:05:02.887Z,100178.52
2022-10-30T08:07:55.378Z,100175.29
2022-10-30T08:10:24.548Z,100178.58
2022-10-30T08:12:53.407Z,100179.01
2022-10-30T08:15:24.052Z,100174.89
2022-10-30T08:17:53.020Z,100177.87
2022-10-30T08:20:23.774Z,100179.48
2022-10-30T08:22:58.289Z,100173.45
2022-10-30T08:25:31.060Z,100173.83
2022-10-30T08:28:07.999Z,100173.77
2022-10-30T08:30:39.290Z,100174.73
2022-10-30T08:33:13.911Z,100174.36
2022-10-30T08:36:01.643Z,100173.79
2022-10-30T08:38:30.062Z,100168.76
2022-10-30T08:41:24.457Z,100173.98
2022-10-30T08:43:53.543Z,100171.17
2022-10-30T08:46:22.334Z,100167.41
2022-10-30T08:48:50.646Z,100168.28
2022-10-30T08:51:19.664Z,100164.19
2022-10-30T08:53:50.114Z,100162.73
2022-10-30T08:56:19.004Z,100152.40
2022-10-30T08:58:59.373Z,100154.66
2022-10-30T09:01:27.820Z,100156.50
2022-10-30T09:04:14.711Z,100156.96
2022-10-30T09:07:21.024Z,100156.73
2022-10-30T09:09:51.977Z,100157.50
2022-10-30T09:12:20.331Z,100155.02
2022-10-30T09:14:48.817Z,100155.90
2022-10-30T09:17:17.159Z,100151.11
2022-10-30T09:19:49.479Z,100145.27
2022-10-30T09:22:22.659Z,100147.73
2022-10-30T09:24:51.338Z,100138.88
2022-10-30T09:27:47.808Z,100141.17
2022-10-30T09:30:16.871Z,100147.05
2022-10-30T09:33:02.960Z,100141.48
2022-10-30T09:36:21.292Z,100137.50
2022-10-30T09:38:51.131Z,100133.81
2022-10-30T09:41:55.361Z,100122.27
2022-10-30T09:44:35.946Z,100125.34
2022-10-30T09:47:25.405Z,100124.34
2022-10-30T09:50:41.384Z,100116.23
2022-10-30T09:53:39.236Z,100113.23
2022-10-30T09:56:26.478Z,100115.64
2022-10-30T09:59:32.841Z,100118.41
2022-10-30T10:02:49.507Z,100114.58
2022-10-30T10:05:25.913Z,100112.15
2022-10-30T10:09:15.604Z,100107.79
2022-10-30T10:12:49.908Z,100116.13
2022-10-30T10:15:47.620Z,100106.59
2022-10-30T10:18:26.762Z,100109.48
2022-10-30T10:21:02.219Z,100105.59
2022-10-30T10:23:41.671Z,100105.17
2022-10-30T10:26:23.813Z,100104.67
2022-10-30T10:29:27.829Z,100100.54
2022-10-30T10:32:27.955Z,100099.15
2022-10-30T10:35:47.845Z,100112.97
2022-10-30T10:38:43.027Z,100110.13
2022-10-30T10:41:56.076Z,100112.67
2022-10-30T10:45:18.008Z,100107.14
2022-10-30T10:48:40.241Z,100104.77
2022-10-30T10:51:12.876Z,100095.94
2022-10-30T10:53:54.597Z,100097.95
2022-10-30T10:56:47.529Z,100099.60
2022-10-30T10:59:33.931Z,100095.30
2022-10-30T11:02:33.085Z,100095.19
2022-10-30T11:05:21.220Z,100092.75
2022-10-30T11:07:50.985Z,100093.70
2022-10-30T11:10:21.380Z,100092.75
2022-10-30T11:12:49.790Z,100090.17
2022-10-30T11:15:38.469Z,100088.59
2022-10-30T11:18:11.140Z,100089.61
2022-10-30T11:21:08.637Z,100085.19
2022-10-30T11:23:45.896Z,100083.71
2022-10-30T11:26:26.261Z,100083.94
2022-10-30T11:29:14.657Z,100076.40
2022-10-30T11:31:45.335Z,100084.52
2022-10-30T11:34:20.475Z,100081.42
2022-10-30T11:36:52.028Z,100081.84
2022-10-30T11:39:27.943Z,100080.90
2022-10-30T11:41:59.072Z,100080.15
2022-10-30T11:44:50.914Z,100082.85
2022-10-30T11:47:26.640Z,100080.20
2022-10-30T11:50:01.548Z,100080.92
2022-10-30T11:52:30.820Z,100078.29
2022-10-30T11:55:02.996Z,100073.38
2022-10-30T11:57:37.981Z,100065.00
2022-10-30T12:00:19.636Z,100068.89
2022-10-30T12:02:51.913Z,100073.20
2022-10-30T12:05:26.372Z,100074.02
2022-10-30T12:08:09.760Z,100075.05
2022-10-30T12:10:52.986Z,100069.73
2022-10-30T12:13:23.890Z,100066.99
2022-10-30T12:16:19.031Z,100060.57
2022-10-30T12:19:01.475Z,100062.21
2022-10-30T12:21:38.196Z,100063.98
2022-10-30T12:24:18.348Z,100064.41
2022-10-30T12:26:53.275Z,100063.70
2022-10-30T12:29:41.711Z,100060.31
2022-10-30T12:32:21.921Z,100060.77
2022-10-30T12:35:03.103Z,100060.23
2022-10-30T12:37:41.794Z,100057.52
2022-10-30T12:40:30.979Z,100057.38
2022-10-30T12:43:08.273Z,100061.08
2022-10-30T12:45:43.499Z,100059.54
2022-10-30T12:48:42.016Z,100061.48
2022-10-30T12:51:32.283Z,100060.85
2022-10-30T12:54:25.020Z,100059.14
2022-10-30T12:57:37.392Z,100053.37
2022-10-30T13:00:15.812Z,100052.24
2022-10-30T13:02:56.699Z,100051.98
2022-10-30T13:05:26.173Z,100058.77
2022-10-30T13:08:33.067Z,100057.07
2022-10-30T13:11:11.951Z,100060.88
2022-10-30T13:13:47.152Z,100058.32
2022-10-30T13:16:30.020Z,100054.86
2022-10-30T13:19:01.573Z,100053.45
2022-10-30T13:24:48.755Z,100050.79
2022-10-30T13:27:41.252Z,100050.19
2022-10-30T13:30:15.593Z,100048.04
2022-10-30T13:33:18.131Z,100045.76
2022-10-30T13:36:08.869Z,100040.63
2022-10-30T13:38:45.986Z,100043.20
2022-10-30T13:41:45.705Z,100044.86
2022-10-30T13:44:39.716Z,100045.85
2022-10-30T13:47:41.857Z,100044.84
2022-10-30T13:50:40.420Z,100044.92
2022-10-30T13:53:27.959Z,100045.58
2022-10-30T13:55:57.047Z,100040.68
2022-10-30T13:59:22.467Z,100039.07
2022-10-30T14:02:23.125Z,100037.28
2022-10-30T14:05:23.958Z,100035.58
2022-10-30T14:08:09.080Z,100032.89
2022-10-30T14:10:57.545Z,100028.93
2022-10-30T14:13:54.917Z,100030.20
2022-10-30T14:16:44.921Z,100031.31
2022-10-30T14:19:14.886Z,100030.77
2022-10-30T14:21:54.875Z,100028.15
2022-10-30T14:24:33.363Z,100025.63
2022-10-30T14:27:04.669Z,100024.63
2022-10-30T14:29:36.035Z,100025.99
2022-10-30T14:32:16.276Z,100025.40
2022-10-30T14:34:50.905Z,100027.02
2022-10-30T14:37:39.089Z,100029.85
2022-10-30T14:40:39.496Z,100028.77
2022-10-30T14:43:40.580Z,100025.73
2022-10-30T14:46:35.067Z,100030.20
2022-10-30T14:49:34.795Z,100026.45
2022-10-30T14:52:37.020Z,100029.10
2022-10-30T14:55:29.927Z,100028.36
2022-10-30T14:58:03.970Z,100025.87
2022-10-30T15:00:41.173Z,100028.92
2022-10-30T15:03:18.475Z,100023.39
2022-10-30T15:06:13.527Z,100029.73
2022-10-30T15:09:14.447Z,100031.48
2022-10-30T15:12:07.490Z,100024.96
2022-10-30T15:14:53.866Z,100034.84
2022-10-30T15:17:28.539Z,100030.54
2022-10-30T15:20:01.657Z,100029.55
2022-10-30T15:22:31.887Z,100033.61
2022-10-30T15:25:02.261Z,100036.60
2022-10-30T15:27:33.173Z,100042.66
2022-10-30T15:30:04.459Z,100035.89
2022-10-30T15:32:32.939Z,100034.42
2022-10-30T15:35:04.986Z,100039.52
2022-10-30T15:37:33.259Z,100035.56
2022-10-30T15:40:21.232Z,100041.89
2022-10-30T15:42:51.315Z,100045.54
2022-10-30T15:45:28.200Z,100044.60
2022-10-30T15:48:11.542Z,100054.23
2022-10-30T15:50:45.796Z,100058.42
2022-10-30T15:53:24.696Z,100055.91
2022-10-30T15:55:52.865Z,100054.81
2022-10-30T15:58:23.092Z,100054.04
2022-10-30T16:01:00.832Z,100060.75
2022-10-30T16:03:30.065Z,100050.70
2022-10-30T16:06:17.980Z,100057.45
2022-10-30T16:08:48.178Z,100062.17
2022-10-30T16:11:16.565Z,100067.41
2022-10-30T16:13:44.936Z,100062.58
2022-10-30T16:16:26.512Z,100069.09
2022-10-30T16:19:01.607Z,100061.69
2022-10-30T16:21:31.322Z,100067.90
2022-10-30T16:24:02.790Z,100071.91
2022-10-30T16:26:35.353Z,100072.25
2022-10-30T16:29:18.667Z,100078.56
2022-10-30T16:31:50.308Z,100078.23
2022-10-30T16:34:36.745Z,100081.44
2022-10-30T16:37:10.723Z,100087.18
2022-10-30T16:39:39.803Z,100086.98
2022-10-30T16:42:26.221Z,100088.38
2022-10-30T16:45:24.826Z,100096.30
2022-10-30T16:48:08.408Z,100100.02
2022-10-30T16:50:38.756Z,100102.37
2022-10-30T16:53:21.033Z,100102.83
2022-10-30T16:55:50.085Z,100105.73
2022-10-30T16:58:19.877Z,100101.00
2022-10-30T17:00:55.055Z,100099.83
2022-10-30T17:03:28.532Z,100103.31
2022-10-30T17:06:07.252Z,100102.39
2022-10-30T17:08:43.527Z,100104.34
2022-10-30T17:11:21.075Z,100103.21
2022-10-30T17:13:52.392Z,100094.56
2022-10-30T17:16:32.280Z,100093.40
2022-10-30T17:19:39.361Z,100094.17
2022-10-30T17:22:13.999Z,100098.55
2022-10-30T17:24:42.702Z,100090.55
2022-10-30T17:27:48.244Z,100098.77
2022-10-30T17:30:38.122Z,100098.45
2022-10-30T17:33:37.353Z,100095.59
2022-10-30T17:36:06.948Z,100093.94
2022-10-30T17:38:35.212Z,100087.75
2022-10-30T17:41:04.041Z,100089.77
2022-10-30T17:43:46.875Z,100086.59
2022-10-30T17:46:20.049Z,100088.58
2022-10-30T17:48:50.031Z,100088.73
2022-10-30T17:51:19.286Z,100092.34
2022-10-30T17:53:48.620Z,100090.41
2022-10-30T17:56:33.386Z,100090.69
2022-10-30T17:59:01.755Z,100088.27
2022-10-30T18:01:30.254Z,100077.23
2022-10-30T18:03:58.820Z,100073.02
2022-10-30T18:06:28.987Z,100068.36
2022-10-30T18:08:57.131Z,100072.46
2022-10-30T18:11:27.297Z,100073.48
2022-10-30T18:13:57.217Z,100074.94
2022-10-30T18:16:25.499Z,100077.30
2022-10-30T18:18:54.500Z,100071.36
2022-10-30T18:21:24.628Z,100074.16
2022-10-30T18:23:54.097Z,100076.05
2022-10-30T18:26:27.054Z,100074.37
2022-10-30T18:28:55.432Z,100069.89
2022-10-30T18:31:24.949Z,100074.11
2022-10-30T18:33:53.197Z,100077.54
2022-10-30T18:36:24.541Z,100080.30
2022-10-30T18:38:53.180Z,100085.33
2022-10-30T18:41:43.517Z,100083.84
2022-10-30T18:44:19.868Z,100087.33
2022-10-30T18:46:48.195Z,100087.86
2022-10-30T18:49:16.623Z,100089.65
2022-10-30T18:51:44.869Z,100083.70
2022-10-30T18:54:16.860Z,100081.77
2022-10-30T18:56:45.274Z,100085.27
2022-10-30T18:59:13.524Z,100081.34
2022-10-30T19:01:41.958Z,100082.27
2022-10-30T19:04:11.108Z,100087.08
2022-10-30T19:06:39.380Z,100091.24
2022-10-30T19:09:07.728Z,100098.05
2022-10-30T19:11:38.239Z,100096.24
2022-10-30T19:14:15.538Z,100103.02
2022-10-30T19:16:43.883Z,100106.54
2022-10-30T19:19:15.125Z,100101.23
2022-10-30T19:21:43.787Z,100104.44
2022-10-30T19:24:15.164Z,100101.95
2022-10-30T19:26:43.530Z,100112.84
2022-10-30T19:29:11.748Z,100112.95
2022-10-30T19:31:39.976Z,100115.67
2022-10-30T19:34:08.655Z,100115.64
2022-10-30T19:36:37.688Z,100117.24
2022-10-30T19:39:17.036Z,100114.64
2022-10-30T19:41:46.402Z,100115.44
2022-10-30T19:44:14.802Z,100116.34
2022-10-30T19:46:43.084Z,100115.19
2022-10-30T19:49:20.484Z,100112.21
2022-10-30T19:51:48.840Z,100115.45
2022-10-30T19:54:17.055Z,100115.36
2022-10-30T19:56:45.359Z,100118.11
2022-10-30T19:59:15.274Z,100121.11
2022-10-30T20:01:44.988Z,100116.63
2022-10-30T20:04:13.862Z,100118.29
2022-10-30T20:06:42.247Z,100115.05
2022-10-30T20:09:12.716Z,100113.17
2022-10-30T20:11:40.960Z,100110.23
2022-10-30T20:14:09.330Z,100113.02
2022-10-30T20:16:37.584Z,100108.16
2022-10-30T20:19:31.057Z,100109.67
2022-10-30T20:21:59.275Z,100110.59
2022-10-30T20:24:27.808Z,100111.26
2022-10-30T20:26:57.491Z,100109.61
2022-10-30T20:29:25.878Z,100106.57
2022-10-30T20:31:54.191Z,100110.63
2022-10-30T20:34:22.441Z,100108.41
2022-10-30T20:36:50.696Z,100111.51
2022-10-30T20:39:18.965Z,100111.77
2022-10-30T20:41:47.595Z,100112.62
2022-10-30T20:44:16.024Z,100110.05
2022-10-30T20:46:44.363Z,100111.17
2022-10-30T20:49:17.494Z,100107.52
2022-10-30T20:51:48.297Z,100109.35
2022-10-30T20:54:17.265Z,100109.34
2022-10-30T20:56:45.496Z,100111.36
2022-10-30T20:59:13.965Z,100109.80
2022-10-30T21:01:42.417Z,100108.02
2022-10-30T21:04:11.006Z,100114.00
2022-10-30T21:06:39.312Z,100117.84
2022-10-30T21:09:07.741Z,100116.55
2022-10-30T21:11:35.988Z,100120.96
2022-10-30T21:14:04.305Z,100120.21
2022-10-30T21:16:32.677Z,100119.52
2022-10-30T21:19:00.947Z,100119.70
2022-10-30T21:21:29.301Z,100116.30
2022-10-30T21:23:57.643Z,100113.48
2022-10-30T21:26:25.956Z,100115.52
2022-10-30T21:28:54.357Z,100115.81
2022-10-30T21:31:22.866Z,100115.19
2022-10-30T21:33:51.211Z,100110.67
2022-10-30T21:36:21.040Z,100112.71
2022-10-30T21:38:49.628Z,100112.59
2022-10-30T21:41:21.467Z,100111.98
2022-10-30T21:43:53.040Z,100111.30
2022-10-30T21:46:23.723Z,100110.73
2022-10-30T21:48:52.398Z,100107.75
2022-10-30T21:51:26.628Z,100108.87
2022-10-30T21:53:56.283Z,100112.75
2022-10-30T21:56:27.785Z,100119.67
2022-10-30T21:58:59.444Z,100119.17
2022-10-30T22:01:33.832Z,100122.17
2022-10-30T22:04:05.156Z,100126.83
2022-10-30T22:06:33.607Z,100123.04
2022-10-30T22:09:01.916Z,100121.13
2022-10-30T22:11:30.267Z,100120.54
2022-10-30T22:14:01.414Z,100119.11
2022-10-30T22:16:33.140Z,100118.30
2022-10-30T22:19:01.994Z,100113.27
2022-10-30T22:21:31.047Z,100117.34
2022-10-30T22:24:01.380Z,100115.77
2022-10-30T22:26:30.619Z,100118.23
2022-10-30T22:29:00.571Z,100109.46
2022-10-30T22:31:30.706Z,100111.10
2022-10-30T22:34:00.855Z,100115.25
2022-10-30T22:36:32.151Z,100109.20
2022-10-30T22:39:10.988Z,100111.68
2022-10-30T22:41:40.080Z,100113.73
2022-10-30T22:44:13.187Z,100109.27
2022-10-30T22:46:41.806Z,100110.92
2022-10-30T22:49:10.154Z,100111.04
2022-10-30T22:51:40.049Z,100114.58
2022-10-30T22:54:14.669Z,100114.07
2022-10-30T22:56:43.128Z,100114.66
2022-10-30T22:59:13.614Z,100111.96
2022-10-30T23:01:43.039Z,100108.14
2022-10-30T23:04:13.126Z,100103.83
2022-10-30T23:06:41.852Z,100103.45
2022-10-30T23:09:19.612Z,100105.63
2022-10-30T23:11:48.874Z,100102.09
2022-10-30T23:14:17.174Z,100102.61
2022-10-30T23:16:45.413Z,100106.73
2022-10-30T23:19:13.837Z,100106.88
2022-10-30T23:21:42.239Z,100111.98
2022-10-30T23:24:10.653Z,100108.20
2022-10-30T23:26:38.972Z,100111.88
2022-10-30T23:29:07.348Z,100114.89
2022-10-30T23:31:39.517Z,100113.99
2022-10-30T23:34:12.379Z,100110.66
2022-10-30T23:36:41.753Z,100110.73
2022-10-30T23:39:15.739Z,100111.95
2022-10-30T23:41:44.901Z,100111.04
2022-10-30T23:44:16.452Z,100108.73
2022-10-30T23:46:44.982Z,100113.04
2022-10-30T23:49:13.419Z,100111.94
2022-10-30T23:51:41.700Z,100113.48
2022-10-30T23:54:10.155Z,100111.98
2022-10-30T23:56:38.472Z,100109.81
2022-10-30T23:59:06.848Z,100108.83
